Terminal Aerodrome Forecast
Issued by NWS

Home | Current Version | Previous Version | Text Only | Print | Product List | Glossary On
Versions: 1 2 3 4 5 6 7 8 9 10 11 12 13 14 15 16 17 18 19 20 21 22
000
FTUS44 KHGX 212335
TAFCXO
TAF
KCXO 212335Z 2200/2224 10006KT P6SM SCT050 BKN250
     FM220200 14004KT P6SM FEW025 FEW250
      TEMPO 2211/2213 5SM BR
     FM221400 16004KT P6SM SCT025
     FM222100 15004KT P6SM VCSH SCT045 SCT250=

USA.gov is the U.S. government's official web portal to all federal, state and local government web resources and services.